sensor_id;sensor_type;location;lat;lon;timestamp;pressure;altitude;pressure_sealevel;temperature;humidity
43934;BME280;59081;42.706;23.306;2023-04-04T00:00:55;93592.97;;;5.89;100.00
43934;BME280;59081;42.706;23.306;2023-04-04T00:03:41;93691.78;;;6.44;100.00
43934;BME280;59081;42.706;23.306;2023-04-04T00:06:13;93832.78;;;7.54;100.00
43934;BME280;59081;42.706;23.306;2023-04-04T00:08:40;93792.44;;;7.23;100.00
43934;BME280;59081;42.706;23.306;2023-04-04T00:19:34;93854.81;;;7.50;100.00
43934;BME280;59081;42.706;23.306;2023-04-04T00:57:46;93527.78;;;5.56;100.00
43934;BME280;59081;42.706;23.306;2023-04-04T01:00:14;93785.00;;;7.24;100.00
43934;BME280;59081;42.706;23.306;2023-04-04T01:02:46;93665.78;;;6.39;100.00
43934;BME280;59081;42.706;23.306;2023-04-04T01:05:17;93794.56;;;7.19;100.00
43934;BME280;59081;42.706;23.306;2023-04-04T01:07:55;93568.13;;;5.52;100.00
43934;BME280;59081;42.706;23.306;2023-04-04T01:10:29;93544.47;;;5.58;100.00
43934;BME280;59081;42.706;23.306;2023-04-04T01:15:37;93548.56;;;5.54;100.00
43934;BME280;59081;42.706;23.306;2023-04-04T01:18:36;93591.81;;;5.77;100.00
43934;BME280;59081;42.706;23.306;2023-04-04T01:21:13;93628.16;;;6.00;100.00
43934;BME280;59081;42.706;23.306;2023-04-04T01:24:03;93589.16;;;5.86;100.00
43934;BME280;59081;42.706;23.306;2023-04-04T01:26:36;93774.75;;;7.15;100.00
43934;BME280;59081;42.706;23.306;2023-04-04T01:29:07;93635.97;;;6.10;100.00
43934;BME280;59081;42.706;23.306;2023-04-04T01:31:42;93558.84;;;5.72;100.00
43934;BME280;59081;42.706;23.306;2023-04-04T01:37:37;93671.81;;;6.56;100.00
43934;BME280;59081;42.706;23.306;2023-04-04T01:40:21;93566.66;;;5.82;100.00
43934;BME280;59081;42.706;23.306;2023-04-04T01:53:21;93782.47;;;7.39;100.00
43934;BME280;59081;42.706;23.306;2023-04-04T01:55:54;93554.72;;;5.89;100.00
43934;BME280;59081;42.706;23.306;2023-04-04T01:58:26;93768.69;;;7.20;100.00
43934;BME280;59081;42.706;23.306;2023-04-04T02:00:54;93757.97;;;7.35;100.00
43934;BME280;59081;42.706;23.306;2023-04-04T02:03:20;93712.31;;;7.01;100.00
43934;BME280;59081;42.706;23.306;2023-04-04T02:05:47;93538.00;;;5.65;100.00
43934;BME280;59081;42.706;23.306;2023-04-04T02:08:21;93529.94;;;5.62;100.00
43934;BME280;59081;42.706;23.306;2023-04-04T02:10:57;93764.31;;;7.23;100.00
43934;BME280;59081;42.706;23.306;2023-04-04T02:13:23;93542.28;;;5.66;100.00
43934;BME280;59081;42.706;23.306;2023-04-04T03:05:19;93588.03;;;5.97;100.00
43934;BME280;59081;42.706;23.306;2023-04-04T03:55:24;93718.06;;;7.34;100.00
43934;BME280;59081;42.706;23.306;2023-04-04T03:58:26;93780.69;;;7.94;100.00
43934;BME280;59081;42.706;23.306;2023-04-04T04:01:28;93533.69;;;6.29;100.00
43934;BME280;59081;42.706;23.306;2023-04-04T04:04:50;93612.81;;;6.86;100.00
43934;BME280;59081;42.706;23.306;2023-04-04T04:26:59;93539.03;;;5.80;100.00
43934;BME280;59081;42.706;23.306;2023-04-04T04:32:09;93692.22;;;6.95;100.00
43934;BME280;59081;42.706;23.306;2023-04-04T04:40:32;93809.91;;;7.48;100.00
43934;BME280;59081;42.706;23.306;2023-04-04T04:43:06;93567.44;;;5.83;100.00
43934;BME280;59081;42.706;23.306;2023-04-04T04:45:35;93631.66;;;6.22;100.00
43934;BME280;59081;42.706;23.306;2023-04-04T04:48:26;93574.13;;;6.35;100.00
43934;BME280;59081;42.706;23.306;2023-04-04T04:53:50;93625.75;;;6.54;100.00
43934;BME280;59081;42.706;23.306;2023-04-04T05:01:53;93825.28;;;7.85;100.00
43934;BME280;59081;42.706;23.306;2023-04-04T05:06:59;93835.66;;;7.90;100.00
43934;BME280;59081;42.706;23.306;2023-04-04T05:09:28;93713.72;;;6.75;100.00
43934;BME280;59081;42.706;23.306;2023-04-04T05:11:54;93610.66;;;6.19;100.00
43934;BME280;59081;42.706;23.306;2023-04-04T05:17:15;93566.94;;;5.97;100.00
43934;BME280;59081;42.706;23.306;2023-04-04T05:19:47;93581.59;;;5.90;100.00
43934;BME280;59081;42.706;23.306;2023-04-04T05:22:12;93712.53;;;6.85;100.00
43934;BME280;59081;42.706;23.306;2023-04-04T05:24:40;93668.13;;;6.50;100.00
43934;BME280;59081;42.706;23.306;2023-04-04T05:27:14;93630.28;;;6.26;100.00
43934;BME280;59081;42.706;23.306;2023-04-04T05:29:40;93647.00;;;6.28;100.00
43934;BME280;59081;42.706;23.306;2023-04-04T05:32:11;93756.22;;;7.19;100.00
43934;BME280;59081;42.706;23.306;2023-04-04T05:34:36;93662.16;;;6.73;100.00
43934;BME280;59081;42.706;23.306;2023-04-04T05:37:04;93814.81;;;7.62;100.00
43934;BME280;59081;42.706;23.306;2023-04-04T05:39:36;93714.06;;;7.17;100.00
43934;BME280;59081;42.706;23.306;2023-04-04T05:42:02;93680.91;;;6.84;100.00
43934;BME280;59081;42.706;23.306;2023-04-04T05:47:00;93767.69;;;7.36;100.00
43934;BME280;59081;42.706;23.306;2023-04-04T05:57:31;93835.19;;;8.41;100.00
43934;BME280;59081;42.706;23.306;2023-04-04T06:00:13;93656.28;;;7.24;100.00
43934;BME280;59081;42.706;23.306;2023-04-04T06:02:45;93872.91;;;8.77;100.00
43934;BME280;59081;42.706;23.306;2023-04-04T06:08:15;93634.59;;;6.98;100.00
43934;BME280;59081;42.706;23.306;2023-04-04T06:10:48;93647.88;;;7.09;100.00
43934;BME280;59081;42.706;23.306;2023-04-04T06:13:19;93714.91;;;7.45;100.00
43934;BME280;59081;42.706;23.306;2023-04-04T06:15:51;93766.03;;;7.88;100.00
43934;BME280;59081;42.706;23.306;2023-04-04T06:27:08;93670.09;;;6.80;100.00
43934;BME280;59081;42.706;23.306;2023-04-04T06:29:43;93661.78;;;6.31;100.00
43934;BME280;59081;42.706;23.306;2023-04-04T06:32:08;93721.03;;;6.34;100.00
43934;BME280;59081;42.706;23.306;2023-04-04T06:34:34;93686.97;;;5.91;100.00
43934;BME280;59081;42.706;23.306;2023-04-04T06:37:00;93876.13;;;6.81;100.00
43934;BME280;59081;42.706;23.306;2023-04-04T06:39:32;93910.84;;;6.37;100.00
43934;BME280;59081;42.706;23.306;2023-04-04T06:41:59;93705.91;;;4.63;100.00
43934;BME280;59081;42.706;23.306;2023-04-04T06:44:28;93904.75;;;5.69;100.00
43934;BME280;59081;42.706;23.306;2023-04-04T06:47:04;93824.66;;;4.93;100.00
43934;BME280;59081;42.706;23.306;2023-04-04T06:49:38;93696.06;;;3.82;100.00
43934;BME280;59081;42.706;23.306;2023-04-04T06:52:07;93841.34;;;4.82;100.00
43934;BME280;59081;42.706;23.306;2023-04-04T06:54:33;93701.66;;;3.91;100.00
43934;BME280;59081;42.706;23.306;2023-04-04T06:57:00;93744.69;;;3.67;100.00
43934;BME280;59081;42.706;23.306;2023-04-04T06:59:30;93905.84;;;4.60;100.00
43934;BME280;59081;42.706;23.306;2023-04-04T07:01:59;93874.88;;;4.21;100.00
43934;BME280;59081;42.706;23.306;2023-04-04T07:04:29;93791.81;;;3.48;100.00
43934;BME280;59081;42.706;23.306;2023-04-04T07:07:10;93934.16;;;4.17;100.00
43934;BME280;59081;42.706;23.306;2023-04-04T07:09:43;93706.13;;;2.55;100.00
43934;BME280;59081;42.706;23.306;2023-04-04T07:12:15;93750.41;;;2.72;100.00
43934;BME280;59081;42.706;23.306;2023-04-04T07:14:53;93955.34;;;3.77;100.00
43934;BME280;59081;42.706;23.306;2023-04-04T07:17:21;93914.00;;;3.46;100.00
43934;BME280;59081;42.706;23.306;2023-04-04T07:22:27;93704.34;;;1.89;100.00
43934;BME280;59081;42.706;23.306;2023-04-04T07:27:58;93856.75;;;2.58;100.00
43934;BME280;59081;42.706;23.306;2023-04-04T07:30:36;93956.31;;;3.31;100.00
43934;BME280;59081;42.706;23.306;2023-04-04T07:33:11;93944.47;;;3.21;100.00
43934;BME280;59081;42.706;23.306;2023-04-04T07:35:48;94060.00;;;3.96;100.00
43934;BME280;59081;42.706;23.306;2023-04-04T07:38:21;94071.44;;;4.07;100.00
43934;BME280;59081;42.706;23.306;2023-04-04T07:41:02;94076.25;;;3.63;100.00
43934;BME280;59081;42.706;23.306;2023-04-04T07:46:23;93815.00;;;2.05;99.10
43934;BME280;59081;42.706;23.306;2023-04-04T07:48:56;94065.06;;;3.77;99.30
43934;BME280;59081;42.706;23.306;2023-04-04T07:51:32;93891.13;;;2.44;98.66
43934;BME280;59081;42.706;23.306;2023-04-04T07:54:07;93807.81;;;1.95;98.77
43934;BME280;59081;42.706;23.306;2023-04-04T07:56:33;93852.88;;;2.35;97.92
43934;BME280;59081;42.706;23.306;2023-04-04T08:01:38;93813.72;;;1.90;97.01
43934;BME280;59081;42.706;23.306;2023-04-04T08:06:46;93838.59;;;2.08;96.71
43934;BME280;59081;42.706;23.306;2023-04-04T08:09:17;93851.19;;;2.22;96.44
43934;BME280;59081;42.706;23.306;2023-04-04T08:11:46;94076.09;;;3.70;96.25
43934;BME280;59081;42.706;23.306;2023-04-04T08:14:14;93853.66;;;2.36;96.57
43934;BME280;59081;42.706;23.306;2023-04-04T08:16:45;94112.97;;;4.14;95.23
43934;BME280;59081;42.706;23.306;2023-04-04T08:19:18;94011.38;;;3.38;94.50
43934;BME280;59081;42.706;23.306;2023-04-04T08:21:45;93869.59;;;2.34;93.90
43934;BME280;59081;42.706;23.306;2023-04-04T08:27:36;93866.22;;;2.06;91.75
43934;BME280;59081;42.706;23.306;2023-04-04T08:30:13;93895.84;;;2.21;90.53
43934;BME280;59081;42.706;23.306;2023-04-04T08:32:52;93881.66;;;2.09;90.88
43934;BME280;59081;42.706;23.306;2023-04-04T08:38:58;93974.16;;;2.49;90.58
43934;BME280;59081;42.706;23.306;2023-04-04T08:41:48;94001.03;;;2.43;90.21
43934;BME280;59081;42.706;23.306;2023-04-04T08:44:40;93863.75;;;1.65;90.18
43934;BME280;59081;42.706;23.306;2023-04-04T08:50:15;93920.34;;;2.17;90.74
43934;BME280;59081;42.706;23.306;2023-04-04T08:52:53;93982.41;;;2.65;91.73
43934;BME280;59081;42.706;23.306;2023-04-04T08:55:22;94027.59;;;2.59;90.99
43934;BME280;59081;42.706;23.306;2023-04-04T08:58:00;94108.69;;;3.11;91.06
43934;BME280;59081;42.706;23.306;2023-04-04T09:00:43;94001.59;;;2.58;91.51
43934;BME280;59081;42.706;23.306;2023-04-04T09:03:31;93922.72;;;2.15;90.22
43934;BME280;59081;42.706;23.306;2023-04-04T09:05:59;94051.22;;;3.09;90.76
43934;BME280;59081;42.706;23.306;2023-04-04T09:08:27;93960.41;;;2.36;90.92
43934;BME280;59081;42.706;23.306;2023-04-04T09:11:04;94118.06;;;3.30;89.71
43934;BME280;59081;42.706;23.306;2023-04-04T09:13:35;93947.44;;;1.97;90.56
43934;BME280;59081;42.706;23.306;2023-04-04T09:16:05;94181.25;;;3.64;91.97
43934;BME280;59081;42.706;23.306;2023-04-04T09:18:57;94143.94;;;3.18;91.87
43934;BME280;59081;42.706;23.306;2023-04-04T09:24:16;94189.81;;;3.43;92.37
43934;BME280;59081;42.706;23.306;2023-04-04T09:26:53;94201.56;;;3.60;93.38
43934;BME280;59081;42.706;23.306;2023-04-04T09:29:43;93923.38;;;1.72;92.01
43934;BME280;59081;42.706;23.306;2023-04-04T09:35:05;94133.03;;;2.95;91.64
43934;BME280;59081;42.706;23.306;2023-04-04T09:37:46;93931.53;;;1.72;91.09
43934;BME280;59081;42.706;23.306;2023-04-04T09:43:13;94127.16;;;3.23;89.16
43934;BME280;59081;42.706;23.306;2023-04-04T09:45:52;94084.69;;;2.83;87.98
43934;BME280;59081;42.706;23.306;2023-04-04T09:48:33;94207.53;;;3.51;88.41
43934;BME280;59081;42.706;23.306;2023-04-04T09:51:04;93899.34;;;1.44;88.91
43934;BME280;59081;42.706;23.306;2023-04-04T09:53:46;93991.59;;;2.01;92.12
43934;BME280;59081;42.706;23.306;2023-04-04T09:56:25;94210.00;;;3.65;89.11
43934;BME280;59081;42.706;23.306;2023-04-04T10:01:47;93904.75;;;1.21;89.71
43934;BME280;59081;42.706;23.306;2023-04-04T10:35:12;94240.16;;;3.55;87.42
43934;BME280;59081;42.706;23.306;2023-04-04T10:38:30;93992.31;;;1.79;88.17
43934;BME280;59081;42.706;23.306;2023-04-04T10:41:35;93978.47;;;1.73;88.41
43934;BME280;59081;42.706;23.306;2023-04-04T10:47:35;94005.66;;;1.69;90.96
43934;BME280;59081;42.706;23.306;2023-04-04T11:07:48;93976.72;;;1.25;91.11
43934;BME280;59081;42.706;23.306;2023-04-04T12:01:50;94002.41;;;1.17;88.65
43934;BME280;59081;42.706;23.306;2023-04-04T12:04:46;94093.94;;;1.78;90.54
43934;BME280;59081;42.706;23.306;2023-04-04T12:07:22;94200.13;;;2.51;89.55
43934;BME280;59081;42.706;23.306;2023-04-04T12:10:02;94108.84;;;1.96;90.50
43934;BME280;59081;42.706;23.306;2023-04-04T12:12:36;94063.53;;;1.59;90.26
43934;BME280;59081;42.706;23.306;2023-04-04T12:17:47;94038.44;;;1.18;87.69
43934;BME280;59081;42.706;23.306;2023-04-04T12:23:03;94045.09;;;1.13;89.38
43934;BME280;59081;42.706;23.306;2023-04-04T12:25:46;94010.59;;;0.76;89.07
43934;BME280;59081;42.706;23.306;2023-04-04T12:33:45;94043.88;;;1.18;91.33
43934;BME280;59081;42.706;23.306;2023-04-04T12:36:44;94033.19;;;1.03;90.71
43934;BME280;59081;42.706;23.306;2023-04-04T12:39:19;94020.84;;;0.99;90.00
43934;BME280;59081;42.706;23.306;2023-04-04T12:42:00;94250.31;;;2.43;92.40
43934;BME280;59081;42.706;23.306;2023-04-04T13:25:07;94384.72;;;2.76;94.32
43934;BME280;59081;42.706;23.306;2023-04-04T13:34:13;94381.09;;;2.52;94.80
43934;BME280;59081;42.706;23.306;2023-04-04T13:37:08;94134.50;;;0.79;94.14
43934;BME280;59081;42.706;23.306;2023-04-04T13:39:59;94160.81;;;0.82;93.96
43934;BME280;59081;42.706;23.306;2023-04-04T13:42:51;94406.75;;;2.48;94.96
43934;BME280;59081;42.706;23.306;2023-04-04T13:45:30;94095.16;;;0.57;95.09
43934;BME280;59081;42.706;23.306;2023-04-04T14:01:49;94142.50;;;0.45;96.53
43934;BME280;59081;42.706;23.306;2023-04-04T14:04:43;94341.53;;;1.65;95.98
43934;BME280;59081;42.706;23.306;2023-04-04T14:07:48;94097.53;;;-0.04;97.72
43934;BME280;59081;42.706;23.306;2023-04-04T14:10:49;94160.38;;;0.32;96.75
43934;BME280;59081;42.706;23.306;2023-04-04T14:16:28;94376.06;;;1.61;97.13
43934;BME280;59081;42.706;23.306;2023-04-04T14:22:03;94272.63;;;1.00;96.22
43934;BME280;59081;42.706;23.306;2023-04-04T14:25:13;94142.41;;;-0.07;96.37
43934;BME280;59081;42.706;23.306;2023-04-04T14:28:12;94448.00;;;1.91;96.37
43934;BME280;59081;42.706;23.306;2023-04-04T14:33:32;94455.81;;;1.82;94.65
43934;BME280;59081;42.706;23.306;2023-04-04T14:36:18;94331.16;;;0.94;95.17
43934;BME280;59081;42.706;23.306;2023-04-04T14:47:44;94307.16;;;0.89;95.31
43934;BME280;59081;42.706;23.306;2023-04-04T14:50:21;94205.31;;;0.19;94.64
43934;BME280;59081;42.706;23.306;2023-04-04T15:00:39;94379.94;;;1.01;94.39
43934;BME280;59081;42.706;23.306;2023-04-04T15:03:13;94491.22;;;1.67;94.77
43934;BME280;59081;42.706;23.306;2023-04-04T15:05:45;94439.06;;;1.28;93.81
43934;BME280;59081;42.706;23.306;2023-04-04T15:08:17;94384.63;;;0.87;93.59
43934;BME280;59081;42.706;23.306;2023-04-04T15:11:00;94490.84;;;1.65;93.67
43934;BME280;59081;42.706;23.306;2023-04-04T15:13:40;94183.13;;;-0.39;93.17
43934;BME280;59081;42.706;23.306;2023-04-04T15:26:59;94232.25;;;-0.83;98.06
43934;BME280;59081;42.706;23.306;2023-04-04T15:29:33;94496.94;;;1.03;97.22
43934;BME280;59081;42.706;23.306;2023-04-04T15:32:16;94217.56;;;-1.03;97.42
43934;BME280;59081;42.706;23.306;2023-04-04T15:35:01;94236.06;;;-0.52;96.02
43934;BME280;59081;42.706;23.306;2023-04-04T15:37:40;94236.06;;;-0.48;95.76
43934;BME280;59081;42.706;23.306;2023-04-04T15:40:07;94230.69;;;-0.80;94.86
43934;BME280;59081;42.706;23.306;2023-04-04T15:56:26;94356.69;;;-0.37;96.87
43934;BME280;59081;42.706;23.306;2023-04-04T15:59:06;94456.41;;;0.32;95.76
43934;BME280;59081;42.706;23.306;2023-04-04T16:01:53;94275.13;;;-0.81;95.32
43934;BME280;59081;42.706;23.306;2023-04-04T16:04:32;94493.16;;;0.51;95.51
43934;BME280;59081;42.706;23.306;2023-04-04T16:07:01;94254.66;;;-1.11;95.51
43934;BME280;59081;42.706;23.306;2023-04-04T16:09:48;94254.28;;;-1.06;95.74
43934;BME280;59081;42.706;23.306;2023-04-04T16:12:55;94551.94;;;1.00;96.47
43934;BME280;59081;42.706;23.306;2023-04-04T16:15:58;94297.13;;;-0.65;93.24
43934;BME280;59081;42.706;23.306;2023-04-04T16:18:44;94565.50;;;1.00;93.90
43934;BME280;59081;42.706;23.306;2023-04-04T16:21:22;94500.91;;;0.42;95.50
43934;BME280;59081;42.706;23.306;2023-04-04T16:24:03;94372.88;;;-0.65;94.99
43934;BME280;59081;42.706;23.306;2023-04-04T16:35:04;94298.19;;;-1.37;96.47
43934;BME280;59081;42.706;23.306;2023-04-04T16:37:38;94326.03;;;-1.19;95.89
43934;BME280;59081;42.706;23.306;2023-04-04T16:40:17;94507.88;;;-0.03;96.13
43934;BME280;59081;42.706;23.306;2023-04-04T16:42:48;94537.28;;;0.16;97.05
43934;BME280;59081;42.706;23.306;2023-04-04T16:51:10;94582.97;;;0.57;93.76
43934;BME280;59081;42.706;23.306;2023-04-04T16:54:08;94293.50;;;-1.61;94.61
43934;BME280;59081;42.706;23.306;2023-04-04T16:57:03;94284.13;;;-1.89;95.17
43934;BME280;59081;42.706;23.306;2023-04-04T16:59:38;94302.78;;;-1.62;96.35
43934;BME280;59081;42.706;23.306;2023-04-04T17:02:29;94344.47;;;-1.49;96.06
43934;BME280;59081;42.706;23.306;2023-04-04T17:05:13;94605.81;;;0.31;95.82
43934;BME280;59081;42.706;23.306;2023-04-04T17:07:50;94344.91;;;-1.44;95.96
43934;BME280;59081;42.706;23.306;2023-04-04T17:10:52;94326.25;;;-1.70;95.78
43934;BME280;59081;42.706;23.306;2023-04-04T17:13:24;94331.69;;;-1.66;96.25
43934;BME280;59081;42.706;23.306;2023-04-04T17:16:18;94322.00;;;-1.74;95.93
43934;BME280;59081;42.706;23.306;2023-04-04T17:18:56;94452.34;;;-1.01;96.54
43934;BME280;59081;42.706;23.306;2023-04-04T17:21:32;94318.84;;;-1.91;97.41
43934;BME280;59081;42.706;23.306;2023-04-04T17:24:01;94467.09;;;-0.81;97.64
43934;BME280;59081;42.706;23.306;2023-04-04T17:26:44;94370.75;;;-1.35;95.78
43934;BME280;59081;42.706;23.306;2023-04-04T17:29:35;94543.38;;;-0.29;96.60
43934;BME280;59081;42.706;23.306;2023-04-04T17:32:38;94369.53;;;-1.52;97.67
43934;BME280;59081;42.706;23.306;2023-04-04T17:40:35;94411.13;;;-1.67;96.30
43934;BME280;59081;42.706;23.306;2023-04-04T17:43:07;94367.44;;;-1.91;96.86
43934;BME280;59081;42.706;23.306;2023-04-04T17:45:47;94383.25;;;-1.86;96.50
43934;BME280;59081;42.706;23.306;2023-04-04T17:48:22;94666.44;;;0.02;97.04
43934;BME280;59081;42.706;23.306;2023-04-04T17:51:05;94396.84;;;-1.71;97.00
43934;BME280;59081;42.706;23.306;2023-04-04T17:54:03;94473.13;;;-1.20;98.46
43934;BME280;59081;42.706;23.306;2023-04-04T18:02:02;94420.09;;;-1.56;96.38
43934;BME280;59081;42.706;23.306;2023-04-04T18:04:50;94378.97;;;-1.97;95.48
43934;BME280;59081;42.706;23.306;2023-04-04T18:07:22;94426.84;;;-1.84;97.47
43934;BME280;59081;42.706;23.306;2023-04-04T18:10:04;94688.53;;;0.00;96.54
43934;BME280;59081;42.706;23.306;2023-04-04T18:12:39;94597.78;;;-0.59;96.19
43934;BME280;59081;42.706;23.306;2023-04-04T18:15:11;94591.16;;;-0.69;95.75
43934;BME280;59081;42.706;23.306;2023-04-04T18:17:54;94419.00;;;-2.03;96.66
43934;BME280;59081;42.706;23.306;2023-04-04T18:23:26;94472.91;;;-1.62;95.94
43934;BME280;59081;42.706;23.306;2023-04-04T18:31:28;94433.31;;;-1.99;96.44
43934;BME280;59081;42.706;23.306;2023-04-04T18:34:14;94618.88;;;-0.86;96.81
43934;BME280;59081;42.706;23.306;2023-04-04T18:36:58;94412.06;;;-2.04;96.97
43934;BME280;59081;42.706;23.306;2023-04-04T18:39:32;94706.22;;;-0.20;96.54
43934;BME280;59081;42.706;23.306;2023-04-04T18:44:53;94669.00;;;-0.38;95.81
43934;BME280;59081;42.706;23.306;2023-04-04T18:47:38;94413.19;;;-2.12;96.00
43934;BME280;59081;42.706;23.306;2023-04-04T18:50:15;94733.75;;;-0.04;96.14
43934;BME280;59081;42.706;23.306;2023-04-04T18:53:18;94451.81;;;-1.97;97.61
43934;BME280;59081;42.706;23.306;2023-04-04T18:55:59;94733.69;;;-0.15;97.13
43934;BME280;59081;42.706;23.306;2023-04-04T18:58:39;94641.31;;;-0.82;98.13
43934;BME280;59081;42.706;23.306;2023-04-04T19:01:16;94554.41;;;-0.88;95.65
43934;BME280;59081;42.706;23.306;2023-04-04T19:03:51;94733.00;;;0.06;95.45
43934;BME280;59081;42.706;23.306;2023-04-04T19:06:25;94451.06;;;-1.98;95.68
43934;BME280;59081;42.706;23.306;2023-04-04T19:25:03;94649.72;;;-0.98;97.78
43934;BME280;59081;42.706;23.306;2023-04-04T19:27:45;94467.13;;;-2.12;96.87
43934;BME280;59081;42.706;23.306;2023-04-04T19:34:05;94475.78;;;-1.89;95.53
43934;BME280;59081;42.706;23.306;2023-04-04T19:36:48;94691.22;;;-0.69;96.18
43934;BME280;59081;42.706;23.306;2023-04-04T19:39:34;94694.66;;;-0.79;96.19
43934;BME280;59081;42.706;23.306;2023-04-04T19:42:12;94483.25;;;-2.19;97.03
43934;BME280;59081;42.706;23.306;2023-04-04T19:44:58;94747.91;;;-0.28;96.33
43934;BME280;59081;42.706;23.306;2023-04-04T19:47:35;94482.63;;;-2.02;95.68
43934;BME280;59081;42.706;23.306;2023-04-04T19:52:54;94752.59;;;-0.25;97.49
43934;BME280;59081;42.706;23.306;2023-04-04T19:55:42;94540.44;;;-1.59;97.69
43934;BME280;59081;42.706;23.306;2023-04-04T19:58:17;94469.31;;;-2.28;97.78
43934;BME280;59081;42.706;23.306;2023-04-04T20:04:22;94665.00;;;-1.20;98.42
43934;BME280;59081;42.706;23.306;2023-04-04T20:06:56;94517.50;;;-2.27;98.24
43934;BME280;59081;42.706;23.306;2023-04-04T20:09:46;94477.50;;;-2.58;99.47
43934;BME280;59081;42.706;23.306;2023-04-04T20:12:23;94469.41;;;-2.58;99.68
43934;BME280;59081;42.706;23.306;2023-04-04T20:15:01;94656.53;;;-1.15;99.77
43934;BME280;59081;42.706;23.306;2023-04-04T20:17:37;94686.88;;;-0.84;99.46
43934;BME280;59081;42.706;23.306;2023-04-04T20:20:44;94533.97;;;-1.95;98.92
43934;BME280;59081;42.706;23.306;2023-04-04T20:23:23;94684.38;;;-1.11;99.41
43934;BME280;59081;42.706;23.306;2023-04-04T20:26:04;94580.72;;;-1.39;100.00
43934;BME280;59081;42.706;23.306;2023-04-04T20:28:43;94528.06;;;-2.07;96.99
43934;BME280;59081;42.706;23.306;2023-04-04T20:34:46;94644.25;;;-1.53;100.00
43934;BME280;59081;42.706;23.306;2023-04-04T20:37:23;94523.44;;;-2.07;100.00
43934;BME280;59081;42.706;23.306;2023-04-04T20:42:55;94492.09;;;-2.26;99.86
43934;BME280;59081;42.706;23.306;2023-04-04T20:45:43;94425.41;;;-2.69;99.70
43934;BME280;59081;42.706;23.306;2023-04-04T20:53:54;94532.53;;;-1.82;99.96
43934;BME280;59081;42.706;23.306;2023-04-04T20:57:01;94540.97;;;-1.87;99.92
43934;BME280;59081;42.706;23.306;2023-04-04T21:02:29;94706.72;;;-1.17;100.00
43934;BME280;59081;42.706;23.306;2023-04-04T21:11:00;94644.47;;;-1.28;100.00
43934;BME280;59081;42.706;23.306;2023-04-04T21:13:39;94493.84;;;-2.40;100.00
43934;BME280;59081;42.706;23.306;2023-04-04T21:16:08;94762.03;;;-0.60;100.00
43934;BME280;59081;42.706;23.306;2023-04-04T21:18:39;94501.75;;;-2.62;100.00
43934;BME280;59081;42.706;23.306;2023-04-04T21:21:23;94768.91;;;-0.66;100.00
43934;BME280;59081;42.706;23.306;2023-04-04T21:23:54;94504.50;;;-2.55;100.00
43934;BME280;59081;42.706;23.306;2023-04-04T21:26:36;94709.22;;;-0.94;100.00
43934;BME280;59081;42.706;23.306;2023-04-04T21:29:09;94709.16;;;-1.01;100.00
43934;BME280;59081;42.706;23.306;2023-04-04T21:31:53;94535.16;;;-2.33;100.00
43934;BME280;59081;42.706;23.306;2023-04-04T21:34:24;94578.56;;;-2.12;100.00
43934;BME280;59081;42.706;23.306;2023-04-04T21:37:09;94516.84;;;-2.54;100.00
43934;BME280;59081;42.706;23.306;2023-04-04T21:39:54;94650.81;;;-1.57;100.00
43934;BME280;59081;42.706;23.306;2023-04-04T21:42:47;94782.09;;;-0.61;100.00
43934;BME280;59081;42.706;23.306;2023-04-04T21:45:16;94530.31;;;-2.17;99.97
43934;BME280;59081;42.706;23.306;2023-04-04T21:47:45;94480.63;;;-2.53;100.00
43934;BME280;59081;42.706;23.306;2023-04-04T21:50:22;94520.66;;;-2.55;100.00
43934;BME280;59081;42.706;23.306;2023-04-04T21:52:49;94673.19;;;-1.57;100.00
43934;BME280;59081;42.706;23.306;2023-04-04T21:55:38;94603.41;;;-1.92;100.00
43934;BME280;59081;42.706;23.306;2023-04-04T21:58:07;94790.31;;;-0.47;100.00
43934;BME280;59081;42.706;23.306;2023-04-04T22:00:45;94538.72;;;-2.25;100.00
43934;BME280;59081;42.706;23.306;2023-04-04T22:03:15;94764.03;;;-0.97;100.00
43934;BME280;59081;42.706;23.306;2023-04-04T22:05:49;94518.25;;;-2.67;100.00
43934;BME280;59081;42.706;23.306;2023-04-04T22:08:27;94553.59;;;-2.38;100.00
43934;BME280;59081;42.706;23.306;2023-04-04T22:10:53;94524.78;;;-2.68;100.00
43934;BME280;59081;42.706;23.306;2023-04-04T22:13:31;94634.38;;;-1.79;100.00
43934;BME280;59081;42.706;23.306;2023-04-04T22:16:15;94810.72;;;-0.60;100.00
43934;BME280;59081;42.706;23.306;2023-04-04T22:18:58;94501.66;;;-2.69;100.00
43934;BME280;59081;42.706;23.306;2023-04-04T22:21:30;94508.56;;;-2.71;100.00
43934;BME280;59081;42.706;23.306;2023-04-04T22:24:06;94531.09;;;-2.53;100.00
43934;BME280;59081;42.706;23.306;2023-04-04T22:26:34;94522.97;;;-2.57;100.00
43934;BME280;59081;42.706;23.306;2023-04-04T22:29:11;94792.09;;;-0.68;100.00
43934;BME280;59081;42.706;23.306;2023-04-04T22:31:57;94654.59;;;-1.62;100.00
43934;BME280;59081;42.706;23.306;2023-04-04T22:34:29;94682.13;;;-1.49;100.00
43934;BME280;59081;42.706;23.306;2023-04-04T22:37:22;94514.03;;;-2.64;100.00
43934;BME280;59081;42.706;23.306;2023-04-04T22:39:50;94499.94;;;-2.84;100.00
43934;BME280;59081;42.706;23.306;2023-04-04T22:42:31;94486.94;;;-2.78;100.00
43934;BME280;59081;42.706;23.306;2023-04-04T22:45:09;94537.44;;;-2.35;100.00
43934;BME280;59081;42.706;23.306;2023-04-04T22:47:45;94784.75;;;-0.72;100.00
43934;BME280;59081;42.706;23.306;2023-04-04T22:50:27;94618.84;;;-1.92;100.00
43934;BME280;59081;42.706;23.306;2023-04-04T22:52:55;94540.28;;;-2.58;100.00
43934;BME280;59081;42.706;23.306;2023-04-04T22:55:28;94674.69;;;-1.59;100.00
43934;BME280;59081;42.706;23.306;2023-04-04T22:58:03;94793.22;;;-0.73;100.00
43934;BME280;59081;42.706;23.306;2023-04-04T23:00:32;94631.69;;;-1.79;100.00
43934;BME280;59081;42.706;23.306;2023-04-04T23:02:58;94683.31;;;-1.47;100.00
43934;BME280;59081;42.706;23.306;2023-04-04T23:05:33;94640.06;;;-1.91;100.00
43934;BME280;59081;42.706;23.306;2023-04-04T23:08:02;94501.56;;;-2.76;100.00